Terminal Aerodrome Forecast
Issued by NWS

Home | Current Version | Previous Version | Text Only | Print | Product List | Glossary On
Versions: 1 2 3 4 5 6 7 8 9 10 11 12 13 14 15
000
FTUS43 KGRB 251720
TAFATW
TAF
KATW 251720Z 2518/2618 23016G30KT P6SM SCT018 BKN035
      TEMPO 2518/2520 4SM -SHRA BKN018
     FM260000 22011G20KT P6SM VCSH BKN040
      TEMPO 2600/2603 4SM SHRA BKN025
     FM260300 20008KT 5SM HZ SCT025 BKN080
     FM260700 21006KT 5SM HZ SCT004 BKN015
      TEMPO 2609/2613 3SM BR BKN004
     FM261400 21009KT P6SM SCT028=

USA.gov is the U.S. government's official web portal to all federal, state and local government web resources and services.